PWSweather.com
Personal Weather Stations
Station Observations
KB2SBX
Sugarloaf, Sugarloaf, PA 18249

SugarloafSugarloaf, PA 18249

Lat: 41.0126685, Lon: -76.1082041

Elevation: 1030

Station Type: WS-2080

http://sugarloafpaweather.webng.com/weather.shtml

High Low Average
Temperature 48.4°F9.1°F 22.5°F-5.3°F 36.0°F2.2°F
Dew Point 32.3°F0.2°F 14.4°F-9.8°F 22.3°F-5.4°F
Winds 3.1 mph S5.0 mph S Calm Calm 0.4 mph 0.6 mph
Wind Gusts 9.8 mph15.8 mph -- 2.3 mph3.7 mph
Humidity 79% 29% 60%
Pressure 30.86 in1045.00 in 30.51 in1033.20 in -
Precipitation 0.00 in0.00 in - -
Hour Temp Dew Point Humidity Winds Wind Gusts Pressure Precip Precip Rate Daily Precip Total
12:00 AM 25.5°F-3.6°C 14.7°F-9.6°C 63% Calm Calm -- 30.62 in1036.9 mb 0.00 in0.0 mm 0.00 in0.0 mm 0.00 in0.0 mm
12:10 AM 25.5°F-3.6°C 15.1°F-9.4°C 64% Calm Calm 0.7 mph1.1 kmh 30.63 in1037.3 mb 0.00 in0.0 mm 0.00 in0.0 mm 0.00 in0.0 mm
12:20 AM 25.3°F-3.7°C 14.9°F-9.5°C 64% Calm Calm 0.7 mph1.1 kmh 30.63 in1037.3 mb 0.00 in0.0 mm 0.00 in0.0 mm 0.00 in0.0 mm
12:30 AM 25.2°F-3.8°C 15.1°F-9.4°C 65% Calm Calm 0.7 mph1.1 kmh 30.65 in1037.9 mb 0.00 in0.0 mm 0.00 in0.0 mm 0.00 in0.0 mm
12:50 AM 25.0°F-3.9°C 14.9°F-9.5°C 65% Calm Calm 0.7 mph1.1 kmh 30.66 in1038.3 mb 0.00 in0.0 mm 0.00 in0.0 mm 0.00 in0.0 mm
01:00 AM 25.0°F-3.9°C 14.9°F-9.5°C 65% Calm Calm -- 30.67 in1038.6 mb 0.00 in0.0 mm 0.00 in0.0 mm 0.00 in0.0 mm
01:10 AM 25.0°F-3.9°C 14.9°F-9.5°C 65% Calm Calm 0.7 mph1.1 kmh 30.68 in1038.9 mb 0.00 in0.0 mm 0.00 in0.0 mm 0.00 in0.0 mm
01:20 AM 24.8°F-4.0°C 14.7°F-9.6°C 65% Calm Calm 0.7 mph1.1 kmh 30.69 in1039.3 mb 0.00 in0.0 mm 0.00 in0.0 mm 0.00 in0.0 mm
01:30 AM 24.8°F-4.0°C 15.1°F-9.4°C 66% Calm Calm 0.7 mph1.1 kmh 30.70 in1039.6 mb 0.00 in0.0 mm 0.00 in0.0 mm 0.00 in0.0 mm
01:40 AM 24.8°F-4.0°C 15.4°F-9.2°C 67% Calm Calm 1.6 mph2.6 kmh 30.71 in1040.0 mb 0.00 in0.0 mm 0.00 in0.0 mm 0.00 in0.0 mm
01:50 AM 24.6°F-4.1°C 15.6°F-9.1°C 68% Calm Calm 0.7 mph1.1 kmh 30.71 in1040.0 mb 0.00 in0.0 mm 0.00 in0.0 mm 0.00 in0.0 mm
02:00 AM 24.6°F-4.1°C 15.6°F-9.1°C 68% Calm Calm -- 30.72 in1040.3 mb 0.00 in0.0 mm 0.00 in0.0 mm 0.00 in0.0 mm
02:10 AM 24.6°F-4.1°C 15.6°F-9.1°C 68% Calm Calm 0.7 mph1.1 kmh 30.73 in1040.6 mb 0.00 in0.0 mm 0.00 in0.0 mm 0.00 in0.0 mm
02:20 AM 24.4°F-4.2°C 15.4°F-9.2°C 68% Calm Calm -- 30.73 in1040.6 mb 0.00 in0.0 mm 0.00 in0.0 mm 0.00 in0.0 mm
02:30 AM 24.1°F-4.4°C 15.1°F-9.4°C 68% Calm Calm -- 30.74 in1041.0 mb 0.00 in0.0 mm 0.00 in0.0 mm 0.00 in0.0 mm
02:40 AM 23.9°F-4.5°C 14.9°F-9.5°C 68% Calm Calm 0.7 mph1.1 kmh 30.75 in1041.3 mb 0.00 in0.0 mm 0.00 in0.0 mm 0.00 in0.0 mm
02:50 AM 23.7°F-4.6°C 14.7°F-9.6°C 68% Calm Calm -- 30.76 in1041.7 mb 0.00 in0.0 mm 0.00 in0.0 mm 0.00 in0.0 mm
03:00 AM 23.7°F-4.6°C 14.7°F-9.6°C 68% Calm Calm -- 30.77 in1042.0 mb 0.00 in0.0 mm 0.00 in0.0 mm 0.00 in0.0 mm
03:10 AM 23.4°F-4.8°C 14.4°F-9.8°C 68% Calm Calm -- 30.78 in1042.3 mb 0.00 in0.0 mm 0.00 in0.0 mm 0.00 in0.0 mm
03:20 AM 23.4°F-4.8°C 14.4°F-9.8°C 68% Calm Calm -- 30.79 in1042.7 mb 0.00 in0.0 mm 0.00 in0.0 mm 0.00 in0.0 mm
03:30 AM 23.4°F-4.8°C 14.7°F-9.6°C 69% Calm Calm 0.7 mph1.1 kmh 30.79 in1042.7 mb 0.00 in0.0 mm 0.00 in0.0 mm 0.00 in0.0 mm
03:50 AM 23.4°F-4.8°C 14.7°F-9.6°C 69% Calm Calm -- 30.82 in1043.7 mb 0.00 in0.0 mm 0.00 in0.0 mm 0.00 in0.0 mm
04:00 AM 23.4°F-4.8°C 14.7°F-9.6°C 69% Calm Calm 0.7 mph1.1 kmh 30.82 in1043.7 mb 0.00 in0.0 mm 0.00 in0.0 mm 0.00 in0.0 mm
04:10 AM 23.0°F-5.0°C 14.4°F-9.8°C 69% Calm Calm -- 30.84 in1044.4 mb 0.00 in0.0 mm 0.00 in0.0 mm 0.00 in0.0 mm
04:20 AM 22.6°F-5.2°C 14.4°F-9.8°C 70% Calm Calm -- 30.84 in1044.4 mb 0.00 in0.0 mm 0.00 in0.0 mm 0.00 in0.0 mm
04:30 AM 22.8°F-5.1°C 14.9°F-9.5°C 71% Calm Calm 1.6 mph2.6 kmh 30.86 in1045.0 mb 0.00 in0.0 mm 0.00 in0.0 mm 0.00 in0.0 mm
04:40 AM 23.0°F-5.0°C 14.7°F-9.6°C 70% Calm Calm 1.6 mph2.6 kmh 30.86 in1045.0 mb 0.00 in0.0 mm 0.00 in0.0 mm 0.00 in0.0 mm
04:50 AM 23.2°F-4.9°C 15.2°F-9.3°C 71% Calm Calm 0.7 mph1.1 kmh 30.84 in1044.4 mb 0.00 in0.0 mm 0.00 in0.0 mm 0.00 in0.0 mm
05:00 AM 23.2°F-4.9°C 15.2°F-9.3°C 71% Calm Calm 0.7 mph1.1 kmh 30.82 in1043.7 mb 0.00 in0.0 mm 0.00 in0.0 mm 0.00 in0.0 mm
05:10 AM 23.2°F-4.9°C 15.2°F-9.3°C 71% Calm Calm 0.7 mph1.1 kmh 30.82 in1043.7 mb 0.00 in0.0 mm 0.00 in0.0 mm 0.00 in0.0 mm
05:20 AM 23.2°F-4.9°C 15.2°F-9.3°C 71% Calm Calm 0.7 mph1.1 kmh 30.82 in1043.7 mb 0.00 in0.0 mm 0.00 in0.0 mm 0.00 in0.0 mm
05:30 AM 23.4°F-4.8°C 15.7°F-9.1°C 72% Calm Calm 0.7 mph1.1 kmh 30.81 in1043.3 mb 0.00 in0.0 mm 0.00 in0.0 mm 0.00 in0.0 mm
05:40 AM 23.4°F-4.8°C 15.7°F-9.1°C 72% Calm Calm 0.7 mph1.1 kmh 30.77 in1042.0 mb 0.00 in0.0 mm 0.00 in0.0 mm 0.00 in0.0 mm
05:50 AM 23.4°F-4.8°C 15.4°F-9.2°C 71% Calm Calm 0.7 mph1.1 kmh 30.72 in1040.3 mb 0.00 in0.0 mm 0.00 in0.0 mm 0.00 in0.0 mm
06:00 AM 23.4°F-4.8°C 15.4°F-9.2°C 71% Calm Calm 0.7 mph1.1 kmh 30.69 in1039.3 mb 0.00 in0.0 mm 0.00 in0.0 mm 0.00 in0.0 mm
06:10 AM 23.2°F-4.9°C 15.2°F-9.3°C 71% Calm Calm 0.7 mph1.1 kmh 30.70 in1039.6 mb 0.00 in0.0 mm 0.00 in0.0 mm 0.00 in0.0 mm
06:20 AM 22.6°F-5.2°C 15.0°F-9.4°C 72% Calm Calm 0.7 mph1.1 kmh 30.71 in1040.0 mb 0.00 in0.0 mm 0.00 in0.0 mm 0.00 in0.0 mm
06:30 AM 22.6°F-5.2°C 15.3°F-9.3°C 73% Calm Calm 0.7 mph1.1 kmh 30.73 in1040.6 mb 0.00 in0.0 mm 0.00 in0.0 mm 0.00 in0.0 mm
06:40 AM 23.0°F-5.0°C 15.4°F-9.2°C 72% Calm Calm 0.7 mph1.1 kmh 30.71 in1040.0 mb 0.00 in0.0 mm 0.00 in0.0 mm 0.00 in0.0 mm
06:50 AM 23.2°F-4.9°C 15.5°F-9.2°C 72% Calm Calm 0.7 mph1.1 kmh 30.68 in1038.9 mb 0.00 in0.0 mm 0.00 in0.0 mm 0.00 in0.0 mm
07:00 AM 23.0°F-5.0°C 15.4°F-9.2°C 72% Calm Calm 0.7 mph1.1 kmh 30.63 in1037.3 mb 0.00 in0.0 mm 0.00 in0.0 mm 0.00 in0.0 mm
07:10 AM 22.5°F-5.3°C 15.2°F-9.3°C 73% Calm Calm 0.7 mph1.1 kmh 30.60 in1036.2 mb 0.00 in0.0 mm 0.00 in0.0 mm 0.00 in0.0 mm
07:20 AM 22.8°F-5.1°C 15.8°F-9.0°C 74% Calm Calm 0.7 mph1.1 kmh 30.56 in1034.9 mb 0.00 in0.0 mm 0.00 in0.0 mm 0.00 in0.0 mm
07:30 AM 23.4°F-4.8°C 16.3°F-8.7°C 74% Calm Calm -- 30.55 in1034.5 mb 0.00 in0.0 mm 0.00 in0.0 mm 0.00 in0.0 mm
07:40 AM 24.1°F-4.4°C 17.3°F-8.2°C 75% Calm Calm 0.7 mph1.1 kmh 30.57 in1035.2 mb 0.00 in0.0 mm 0.00 in0.0 mm 0.00 in0.0 mm
07:50 AM 25.2°F-3.8°C 18.4°F-7.6°C 75% Calm Calm 1.6 mph2.6 kmh 30.58 in1035.6 mb 0.00 in0.0 mm 0.00 in0.0 mm 0.00 in0.0 mm
08:00 AM 26.2°F-3.2°C 19.4°F-7.0°C 75% Calm Calm 0.7 mph1.1 kmh 30.61 in1036.6 mb 0.00 in0.0 mm 0.00 in0.0 mm 0.00 in0.0 mm
08:10 AM 26.8°F-2.9°C 19.6°F-6.9°C 74% Calm Calm 0.7 mph1.1 kmh 30.63 in1037.3 mb 0.00 in0.0 mm 0.00 in0.0 mm 0.00 in0.0 mm
08:20 AM 27.7°F-2.4°C 20.5°F-6.4°C 74% Calm Calm 0.7 mph1.1 kmh 30.64 in1037.6 mb 0.00 in0.0 mm 0.00 in0.0 mm 0.00 in0.0 mm
08:30 AM 28.8°F-1.8°C 23.1°F-4.9°C 79% Calm Calm 1.6 mph2.6 kmh 30.61 in1036.6 mb 0.00 in0.0 mm 0.00 in0.0 mm 0.00 in0.0 mm
08:50 AM 31.3°F-0.4°C 24.6°F-4.1°C 76% Calm Calm 1.6 mph2.6 kmh 30.60 in1036.2 mb 0.00 in0.0 mm 0.00 in0.0 mm 0.00 in0.0 mm
09:00 AM 32.7°F0.4°C 25.4°F-3.7°C 74% Calm Calm 1.6 mph2.6 kmh 30.61 in1036.6 mb 0.00 in0.0 mm 0.00 in0.0 mm 0.00 in0.0 mm
09:10 AM 34.5°F1.4°C 25.1°F-3.8°C 68% Calm Calm 1.6 mph2.6 kmh 30.63 in1037.3 mb 0.00 in0.0 mm 0.00 in0.0 mm 0.00 in0.0 mm
09:20 AM 35.8°F2.1°C 22.1°F-5.5°C 57% Calm Calm 2.2 mph3.5 kmh 30.65 in1037.9 mb 0.00 in0.0 mm 0.00 in0.0 mm 0.00 in0.0 mm
09:30 AM 37.0°F2.8°C 22.0°F-5.6°C 54% Calm Calm 1.6 mph2.6 kmh 30.66 in1038.3 mb 0.00 in0.0 mm 0.00 in0.0 mm 0.00 in0.0 mm
09:40 AM 37.8°F3.2°C 22.2°F-5.4°C 53% Calm Calm 2.2 mph3.5 kmh 30.65 in1037.9 mb 0.00 in0.0 mm 0.00 in0.0 mm 0.00 in0.0 mm
09:50 AM 38.5°F3.6°C 22.9°F-5.1°C 53% Calm Calm 2.2 mph3.5 kmh 30.61 in1036.6 mb 0.00 in0.0 mm 0.00 in0.0 mm 0.00 in0.0 mm
10:00 AM 39.7°F4.3°C 23.1°F-4.9°C 51% 0.7 mph W1.1 kmh W 2.2 mph3.5 kmh 30.58 in1035.6 mb 0.00 in0.0 mm 0.00 in0.0 mm 0.00 in0.0 mm
10:10 AM 41.0°F5.0°C 21.8°F-5.7°C 46% 1.6 mph WSW2.6 kmh WSW 2.2 mph3.5 kmh 30.58 in1035.6 mb 0.00 in0.0 mm 0.00 in0.0 mm 0.00 in0.0 mm
10:20 AM 41.9°F5.5°C 21.6°F-5.8°C 44% 2.2 mph W3.5 kmh W 3.8 mph6.1 kmh 30.59 in1035.9 mb 0.00 in0.0 mm 0.00 in0.0 mm 0.00 in0.0 mm
10:30 AM 42.6°F5.9°C 21.2°F-6.0°C 42% 0.7 mph WNW1.1 kmh WNW 6.0 mph9.7 kmh 30.60 in1036.2 mb 0.00 in0.0 mm 0.00 in0.0 mm 0.00 in0.0 mm
10:40 AM 43.0°F6.1°C 20.9°F-6.2°C 41% 0.7 mph SW1.1 kmh SW 4.5 mph7.2 kmh 30.60 in1036.2 mb 0.00 in0.0 mm 0.00 in0.0 mm 0.00 in0.0 mm
10:50 AM 43.3°F6.3°C 20.7°F-6.3°C 40% 2.2 mph WSW3.5 kmh WSW 3.8 mph6.1 kmh 30.61 in1036.6 mb 0.00 in0.0 mm 0.00 in0.0 mm 0.00 in0.0 mm
11:00 AM 43.9°F6.6°C 21.1°F-6.1°C 40% 0.7 mph W1.1 kmh W 3.8 mph6.1 kmh 30.61 in1036.6 mb 0.00 in0.0 mm 0.00 in0.0 mm 0.00 in0.0 mm
11:10 AM 44.8°F7.1°C 20.7°F-6.3°C 38% 1.6 mph WSW2.6 kmh WSW 3.1 mph5.0 kmh 30.57 in1035.2 mb 0.00 in0.0 mm 0.00 in0.0 mm 0.00 in0.0 mm
11:20 AM 45.7°F7.6°C 21.5°F-5.8°C 38% 0.7 mph SW1.1 kmh SW 5.4 mph8.7 kmh 30.55 in1034.5 mb 0.00 in0.0 mm 0.00 in0.0 mm 0.00 in0.0 mm
11:30 AM 46.9°F8.3°C 20.7°F-6.3°C 35% 1.6 mph WSW2.6 kmh WSW 5.4 mph8.7 kmh 30.55 in1034.5 mb 0.00 in0.0 mm 0.00 in0.0 mm 0.00 in0.0 mm
11:40 AM 47.8°F8.8°C 21.5°F-5.8°C 35% 2.2 mph SSE3.5 kmh SSE 4.5 mph7.2 kmh 30.55 in1034.5 mb 0.00 in0.0 mm 0.00 in0.0 mm 0.00 in0.0 mm
11:50 AM 48.2°F9.0°C 19.0°F-7.2°C 31% 0.7 mph SW1.1 kmh SW 5.4 mph8.7 kmh 30.57 in1035.2 mb 0.00 in0.0 mm 0.00 in0.0 mm 0.00 in0.0 mm
12:00 PM 48.2°F9.0°C 19.0°F-7.2°C 31% 1.6 mph WNW2.6 kmh WNW 4.5 mph7.2 kmh 30.57 in1035.2 mb 0.00 in0.0 mm 0.00 in0.0 mm 0.00 in0.0 mm
12:10 PM 48.2°F9.0°C 19.0°F-7.2°C 31% Calm Calm 4.5 mph7.2 kmh 30.57 in1035.2 mb 0.00 in0.0 mm 0.00 in0.0 mm 0.00 in0.0 mm
12:20 PM 48.2°F9.0°C 17.5°F-8.1°C 29% 2.2 mph SSW3.5 kmh SSW 8.3 mph13.4 kmh 30.58 in1035.6 mb 0.00 in0.0 mm 0.00 in0.0 mm 0.00 in0.0 mm
12:30 PM 48.0°F8.9°C 19.6°F-6.9°C 32% 1.6 mph S2.6 kmh S 6.0 mph9.7 kmh 30.59 in1035.9 mb 0.00 in0.0 mm 0.00 in0.0 mm 0.00 in0.0 mm
12:40 PM 47.8°F8.8°C 19.4°F-7.0°C 32% 1.6 mph SSE2.6 kmh SSE 6.0 mph9.7 kmh 30.59 in1035.9 mb 0.00 in0.0 mm 0.00 in0.0 mm 0.00 in0.0 mm
12:50 PM 47.5°F8.6°C 19.8°F-6.8°C 33% 2.2 mph SSW3.5 kmh SSW 6.0 mph9.7 kmh 30.60 in1036.2 mb 0.00 in0.0 mm 0.00 in0.0 mm 0.00 in0.0 mm
01:00 PM 47.3°F8.5°C 19.7°F-6.8°C 33% 2.2 mph ESE3.5 kmh ESE 5.4 mph8.7 kmh 30.59 in1035.9 mb 0.00 in0.0 mm 0.00 in0.0 mm 0.00 in0.0 mm
01:10 PM 47.3°F8.5°C 19.7°F-6.8°C 33% 0.7 mph WNW1.1 kmh WNW 3.8 mph6.1 kmh 30.58 in1035.6 mb 0.00 in0.0 mm 0.00 in0.0 mm 0.00 in0.0 mm
01:20 PM 47.3°F8.5°C 21.1°F-6.1°C 35% Calm Calm 4.5 mph7.2 kmh 30.55 in1034.5 mb 0.00 in0.0 mm 0.00 in0.0 mm 0.00 in0.0 mm
01:30 PM 47.5°F8.6°C 21.9°F-5.6°C 36% 1.6 mph W2.6 kmh W 3.8 mph6.1 kmh 30.52 in1033.5 mb 0.00 in0.0 mm 0.00 in0.0 mm 0.00 in0.0 mm
01:40 PM 47.3°F8.5°C 23.0°F-5.0°C 38% Calm Calm 3.8 mph6.1 kmh 30.51 in1033.2 mb 0.00 in0.0 mm 0.00 in0.0 mm 0.00 in0.0 mm
01:50 PM 47.3°F8.5°C 23.0°F-5.0°C 38% 0.7 mph SE1.1 kmh SE 5.4 mph8.7 kmh 30.52 in1033.5 mb 0.00 in0.0 mm 0.00 in0.0 mm 0.00 in0.0 mm
02:00 PM 47.1°F8.4°C 22.2°F-5.4°C 37% 3.1 mph S5.0 kmh S 6.0 mph9.7 kmh 30.52 in1033.5 mb 0.00 in0.0 mm 0.00 in0.0 mm 0.00 in0.0 mm
02:10 PM 47.3°F8.5°C 21.7°F-5.7°C 36% 3.1 mph S5.0 kmh S 5.4 mph8.7 kmh 30.53 in1033.9 mb 0.00 in0.0 mm 0.00 in0.0 mm 0.00 in0.0 mm
02:20 PM 47.3°F8.5°C 22.4°F-5.3°C 37% 0.7 mph SE1.1 kmh SE 5.4 mph8.7 kmh 30.53 in1033.9 mb 0.00 in0.0 mm 0.00 in0.0 mm 0.00 in0.0 mm
02:30 PM 47.5°F8.6°C 20.5°F-6.4°C 34% 2.2 mph SSW3.5 kmh SSW 6.9 mph11.1 kmh 30.53 in1033.9 mb 0.00 in0.0 mm 0.00 in0.0 mm 0.00 in0.0 mm
02:40 PM 47.5°F8.6°C 21.2°F-6.0°C 35% 1.6 mph S2.6 kmh S 6.9 mph11.1 kmh 30.54 in1034.2 mb 0.00 in0.0 mm 0.00 in0.0 mm 0.00 in0.0 mm
02:50 PM 48.0°F8.9°C 21.7°F-5.7°C 35% 2.2 mph SW3.5 kmh SW 6.0 mph9.7 kmh 30.55 in1034.5 mb 0.00 in0.0 mm 0.00 in0.0 mm 0.00 in0.0 mm
03:00 PM 48.4°F9.1°C 23.3°F-4.8°C 37% 2.2 mph SSW3.5 kmh SSW 4.5 mph7.2 kmh 30.55 in1034.5 mb 0.00 in0.0 mm 0.00 in0.0 mm 0.00 in0.0 mm
03:10 PM 48.4°F9.1°C 24.6°F-4.1°C 39% 3.1 mph SSE5.0 kmh SSE 6.0 mph9.7 kmh 30.56 in1034.9 mb 0.00 in0.0 mm 0.00 in0.0 mm 0.00 in0.0 mm
03:20 PM 47.8°F8.8°C 25.9°F-3.4°C 42% 0.7 mph SE1.1 kmh SE 6.0 mph9.7 kmh 30.56 in1034.9 mb 0.00 in0.0 mm 0.00 in0.0 mm 0.00 in0.0 mm
03:30 PM 47.5°F8.6°C 26.7°F-2.9°C 44% 2.2 mph SW3.5 kmh SW 8.3 mph13.4 kmh 30.57 in1035.2 mb 0.00 in0.0 mm 0.00 in0.0 mm 0.00 in0.0 mm
03:40 PM 47.1°F8.4°C 26.3°F-3.2°C 44% 0.7 mph SW1.1 kmh SW 8.3 mph13.4 kmh 30.57 in1035.2 mb 0.00 in0.0 mm 0.00 in0.0 mm 0.00 in0.0 mm
03:50 PM 46.6°F8.1°C 26.4°F-3.1°C 45% 1.6 mph SW2.6 kmh SW 7.6 mph12.2 kmh 30.58 in1035.6 mb 0.00 in0.0 mm 0.00 in0.0 mm 0.00 in0.0 mm
04:00 PM 46.6°F8.1°C 27.4°F-2.6°C 47% 1.6 mph S2.6 kmh S 8.3 mph13.4 kmh 30.59 in1035.9 mb 0.00 in0.0 mm 0.00 in0.0 mm 0.00 in0.0 mm
04:10 PM 46.4°F8.0°C 27.3°F-2.6°C 47% 1.6 mph SW2.6 kmh SW 5.4 mph8.7 kmh 30.59 in1035.9 mb 0.00 in0.0 mm 0.00 in0.0 mm 0.00 in0.0 mm
04:20 PM 46.2°F7.9°C 27.6°F-2.4°C 48% Calm Calm 6.0 mph9.7 kmh 30.59 in1035.9 mb 0.00 in0.0 mm 0.00 in0.0 mm 0.00 in0.0 mm
04:30 PM 46.2°F7.9°C 28.1°F-2.2°C 49% 0.7 mph WSW1.1 kmh WSW 9.8 mph15.8 kmh 30.60 in1036.2 mb 0.00 in0.0 mm 0.00 in0.0 mm 0.00 in0.0 mm
06:00 PM 43.9°F6.6°C 30.1°F-1.1°C 58% Calm Calm 2.2 mph3.5 kmh 30.56 in1034.9 mb 0.00 in0.0 mm 0.00 in0.0 mm 0.00 in0.0 mm
06:10 PM 43.7°F6.5°C 30.3°F-0.9°C 59% 0.7 mph SW1.1 kmh SW 3.8 mph6.1 kmh 30.55 in1034.5 mb 0.00 in0.0 mm 0.00 in0.0 mm 0.00 in0.0 mm
06:20 PM 43.5°F6.4°C 30.2°F-1.0°C 59% Calm Calm 2.2 mph3.5 kmh 30.56 in1034.9 mb 0.00 in0.0 mm 0.00 in0.0 mm 0.00 in0.0 mm
06:30 PM 43.3°F6.3°C 30.4°F-0.9°C 60% 0.7 mph SE1.1 kmh SE 1.6 mph2.6 kmh 30.56 in1034.9 mb 0.00 in0.0 mm 0.00 in0.0 mm 0.00 in0.0 mm
06:40 PM 43.3°F6.3°C 30.4°F-0.9°C 60% Calm Calm 1.6 mph2.6 kmh 30.56 in1034.9 mb 0.00 in0.0 mm 0.00 in0.0 mm 0.00 in0.0 mm
06:50 PM 43.0°F6.1°C 30.5°F-0.8°C 61% Calm Calm 0.7 mph1.1 kmh 30.56 in1034.9 mb 0.00 in0.0 mm 0.00 in0.0 mm 0.00 in0.0 mm
07:00 PM 42.6°F5.9°C 30.5°F-0.8°C 62% Calm Calm 0.7 mph1.1 kmh 30.56 in1034.9 mb 0.00 in0.0 mm 0.00 in0.0 mm 0.00 in0.0 mm
07:10 PM 42.3°F5.7°C 30.2°F-1.0°C 62% Calm Calm 1.6 mph2.6 kmh 30.56 in1034.9 mb 0.00 in0.0 mm 0.00 in0.0 mm 0.00 in0.0 mm
07:20 PM 42.1°F5.6°C 30.4°F-0.9°C 63% Calm Calm 1.6 mph2.6 kmh 30.56 in1034.9 mb 0.00 in0.0 mm 0.00 in0.0 mm 0.00 in0.0 mm
07:30 PM 41.7°F5.4°C 30.5°F-0.8°C 64% Calm Calm -- 30.56 in1034.9 mb 0.00 in0.0 mm 0.00 in0.0 mm 0.00 in0.0 mm
07:40 PM 41.5°F5.3°C 30.3°F-0.9°C 64% Calm Calm 0.7 mph1.1 kmh 30.55 in1034.5 mb 0.00 in0.0 mm 0.00 in0.0 mm 0.00 in0.0 mm
07:50 PM 40.8°F4.9°C 30.4°F-0.9°C 66% Calm Calm -- 30.55 in1034.5 mb 0.00 in0.0 mm 0.00 in0.0 mm 0.00 in0.0 mm
08:00 PM 40.5°F4.7°C 30.7°F-0.7°C 68% Calm Calm -- 30.56 in1034.9 mb 0.00 in0.0 mm 0.00 in0.0 mm 0.00 in0.0 mm
08:10 PM 40.5°F4.7°C 31.1°F-0.5°C 69% Calm Calm 0.7 mph1.1 kmh 30.57 in1035.2 mb 0.00 in0.0 mm 0.00 in0.0 mm 0.00 in0.0 mm
08:20 PM 40.3°F4.6°C 31.3°F-0.4°C 70% Calm Calm 1.6 mph2.6 kmh 30.57 in1035.2 mb 0.00 in0.0 mm 0.00 in0.0 mm 0.00 in0.0 mm
08:30 PM 40.1°F4.5°C 31.5°F-0.3°C 71% Calm Calm 1.6 mph2.6 kmh 30.58 in1035.6 mb 0.00 in0.0 mm 0.00 in0.0 mm 0.00 in0.0 mm
08:40 PM 40.1°F4.5°C 31.5°F-0.3°C 71% Calm Calm 1.6 mph2.6 kmh 30.58 in1035.6 mb 0.00 in0.0 mm 0.00 in0.0 mm 0.00 in0.0 mm
08:50 PM 40.3°F4.6°C 31.6°F-0.2°C 71% Calm Calm 0.7 mph1.1 kmh 30.59 in1035.9 mb 0.00 in0.0 mm 0.00 in0.0 mm 0.00 in0.0 mm
09:00 PM 40.5°F4.7°C 31.8°F-0.1°C 71% Calm Calm 0.7 mph1.1 kmh 30.59 in1035.9 mb 0.00 in0.0 mm 0.00 in0.0 mm 0.00 in0.0 mm
09:10 PM 40.3°F4.6°C 32.0°F0.0°C 72% Calm Calm 1.6 mph2.6 kmh 30.60 in1036.2 mb 0.00 in0.0 mm 0.00 in0.0 mm 0.00 in0.0 mm
09:20 PM 40.1°F4.5°C 31.8°F-0.1°C 72% Calm Calm 0.7 mph1.1 kmh 30.60 in1036.2 mb 0.00 in0.0 mm 0.00 in0.0 mm 0.00 in0.0 mm
09:30 PM 40.1°F4.5°C 31.8°F-0.1°C 72% Calm Calm 1.6 mph2.6 kmh 30.60 in1036.2 mb 0.00 in0.0 mm 0.00 in0.0 mm 0.00 in0.0 mm
09:40 PM 40.3°F4.6°C 32.0°F0.0°C 72% Calm Calm 2.2 mph3.5 kmh 30.61 in1036.6 mb 0.00 in0.0 mm 0.00 in0.0 mm 0.00 in0.0 mm
09:50 PM 40.1°F4.5°C 31.8°F-0.1°C 72% Calm Calm 1.6 mph2.6 kmh 30.61 in1036.6 mb 0.00 in0.0 mm 0.00 in0.0 mm 0.00 in0.0 mm
10:00 PM 40.3°F4.6°C 32.0°F0.0°C 72% Calm Calm 1.6 mph2.6 kmh 30.61 in1036.6 mb 0.00 in0.0 mm 0.00 in0.0 mm 0.00 in0.0 mm
10:10 PM 40.5°F4.7°C 32.2°F0.1°C 72% Calm Calm 2.2 mph3.5 kmh 30.61 in1036.6 mb 0.00 in0.0 mm 0.00 in0.0 mm 0.00 in0.0 mm
10:20 PM 40.6°F4.8°C 32.3°F0.2°C 72% Calm Calm 1.6 mph2.6 kmh 30.62 in1036.9 mb 0.00 in0.0 mm 0.00 in0.0 mm 0.00 in0.0 mm
10:30 PM 40.6°F4.8°C 32.3°F0.2°C 72% Calm Calm 2.2 mph3.5 kmh 30.62 in1036.9 mb 0.00 in0.0 mm 0.00 in0.0 mm 0.00 in0.0 mm
10:40 PM 40.5°F4.7°C 32.2°F0.1°C 72% Calm Calm 0.7 mph1.1 kmh 30.62 in1036.9 mb 0.00 in0.0 mm 0.00 in0.0 mm 0.00 in0.0 mm
10:50 PM 40.5°F4.7°C 32.2°F0.1°C 72% Calm Calm 0.7 mph1.1 kmh 30.63 in1037.3 mb 0.00 in0.0 mm 0.00 in0.0 mm 0.00 in0.0 mm
11:00 PM 40.5°F4.7°C 32.2°F0.1°C 72% Calm Calm 0.7 mph1.1 kmh 30.63 in1037.3 mb 0.00 in0.0 mm 0.00 in0.0 mm 0.00 in0.0 mm
11:10 PM 40.3°F4.6°C 32.0°F0.0°C 72% Calm Calm 0.7 mph1.1 kmh 30.63 in1037.3 mb 0.00 in0.0 mm 0.00 in0.0 mm 0.00 in0.0 mm
11:20 PM 40.1°F4.5°C 31.8°F-0.1°C 72% Calm Calm 1.6 mph2.6 kmh 30.64 in1037.6 mb 0.00 in0.0 mm 0.00 in0.0 mm 0.00 in0.0 mm
11:30 PM 40.1°F4.5°C 32.2°F0.1°C 73% Calm Calm 1.6 mph2.6 kmh 30.63 in1037.3 mb 0.00 in0.0 mm 0.00 in0.0 mm 0.00 in0.0 mm
11:40 PM 39.9°F4.4°C 32.0°F0.0°C 73% Calm Calm 1.6 mph2.6 kmh 30.64 in1037.6 mb 0.00 in0.0 mm 0.00 in0.0 mm 0.00 in0.0 mm
11:50 PM 39.7°F4.3°C 31.8°F-0.1°C 73% Calm Calm 0.7 mph1.1 kmh 30.64 in1037.6 mb 0.00 in0.0 mm 0.00 in0.0 mm 0.00 in0.0 mm